createdAt,value
2019-05-23T00:00:17.301Z,7.00
2019-05-23T00:01:17.286Z,5.90
2019-05-23T00:02:17.264Z,7.00
2019-05-23T00:04:34.834Z,6.30
2019-05-23T00:05:34.819Z,6.50
2019-05-23T00:06:34.841Z,6.70
2019-05-23T00:07:34.781Z,6.30
2019-05-23T00:08:35.089Z,6.60
2019-05-23T00:10:17.273Z,6.50
2019-05-23T00:11:17.457Z,6.50
2019-05-23T00:12:17.244Z,6.50
2019-05-23T00:13:17.221Z,6.40
2019-05-23T00:14:17.206Z,5.90
2019-05-23T00:15:17.202Z,6.30
2019-05-23T00:16:17.173Z,6.20
2019-05-23T00:17:17.158Z,6.40
2019-05-23T00:18:20.818Z,6.70
2019-05-23T00:19:17.124Z,6.60
2019-05-23T00:20:17.104Z,6.60
2019-05-23T00:21:17.087Z,6.60
2019-05-23T00:22:17.065Z,6.50
2019-05-23T00:23:17.056Z,6.20
2019-05-23T00:24:17.039Z,6.60
2019-05-23T00:25:17.084Z,6.90
2019-05-23T00:26:17.005Z,6.40
2019-05-23T00:27:16.990Z,6.80
2019-05-23T00:28:16.967Z,6.70
2019-05-23T00:29:16.969Z,6.80
2019-05-23T00:34:25.341Z,6.30
2019-05-23T00:35:25.325Z,6.70
2019-05-23T00:36:25.311Z,6.20
2019-05-23T00:37:25.291Z,6.00
2019-05-23T00:38:25.272Z,6.60
2019-05-23T00:39:25.255Z,6.10
2019-05-23T00:40:25.237Z,7.10
2019-05-23T00:41:25.222Z,6.50
2019-05-23T00:42:25.203Z,6.20
2019-05-23T00:43:25.512Z,6.70
2019-05-23T00:45:17.737Z,6.00
2019-05-23T00:46:17.899Z,6.40
2019-05-23T00:47:17.887Z,6.20
2019-05-23T00:48:17.662Z,6.40
2019-05-23T00:49:17.639Z,6.80
2019-05-23T00:50:17.620Z,6.30
2019-05-23T00:51:17.607Z,6.70
2019-05-23T00:57:06.698Z,6.90
2019-05-23T00:58:49.211Z,7.30
2019-05-23T00:59:49.202Z,7.10
2019-05-23T01:00:49.181Z,7.00
2019-05-23T01:01:49.162Z,7.00
2019-05-23T01:02:49.143Z,6.80
2019-05-23T01:03:49.122Z,6.70
2019-05-23T01:04:49.106Z,6.80
2019-05-23T01:05:49.094Z,6.60
2019-05-23T01:06:49.068Z,7.00
2019-05-23T01:07:49.054Z,6.80
2019-05-23T01:08:49.036Z,7.20
2019-05-23T01:09:49.017Z,6.70
2019-05-23T01:10:49.001Z,6.30
2019-05-23T01:11:48.984Z,6.50
2019-05-23T01:12:48.966Z,6.70
2019-05-23T01:13:48.952Z,6.80
2019-05-23T01:14:48.938Z,6.70
2019-05-23T01:15:48.914Z,6.70
2019-05-23T01:16:48.904Z,6.70
2019-05-23T01:17:48.882Z,6.90
2019-05-23T01:18:48.861Z,6.10
2019-05-23T01:19:48.854Z,6.00
2019-05-23T01:20:48.832Z,6.70
2019-05-23T01:21:48.811Z,6.40
2019-05-23T01:22:48.796Z,6.60
2019-05-23T01:23:48.778Z,6.30
2019-05-23T01:24:48.758Z,6.30
2019-05-23T01:25:48.742Z,6.70
2019-05-23T01:26:48.724Z,6.40
2019-05-23T01:27:48.709Z,7.20
2019-05-23T01:28:48.690Z,6.30
2019-05-23T01:29:50.036Z,6.10
2019-05-23T01:30:48.653Z,6.40
2019-05-23T01:31:48.641Z,6.40
2019-05-23T01:32:48.617Z,6.80
2019-05-23T01:33:48.600Z,6.20
2019-05-23T01:34:48.583Z,6.60
2019-05-23T01:35:48.564Z,6.50
2019-05-23T01:36:48.556Z,6.50
2019-05-23T01:37:48.530Z,6.30
2019-05-23T01:38:48.515Z,6.50
2019-05-23T01:39:48.496Z,6.50
2019-05-23T01:40:48.481Z,6.70
2019-05-23T01:41:48.461Z,6.30
2019-05-23T01:42:48.443Z,6.10
2019-05-23T01:43:48.424Z,7.10
2019-05-23T01:44:48.408Z,6.60
2019-05-23T01:45:48.392Z,6.60
2019-05-23T01:46:48.376Z,7.00
2019-05-23T01:47:48.359Z,6.60
2019-05-23T01:48:48.343Z,6.40
2019-05-23T01:49:48.324Z,7.20
2019-05-23T01:50:48.310Z,7.00
2019-05-23T01:51:48.291Z,6.20
2019-05-23T01:52:48.270Z,6.10
2019-05-23T01:53:48.251Z,6.10
2019-05-23T01:54:48.232Z,6.10
2019-05-23T01:55:48.222Z,6.40
2019-05-23T01:56:48.201Z,6.60
2019-05-23T01:57:48.179Z,6.70
2019-05-23T01:58:48.181Z,6.30
2019-05-23T01:59:48.151Z,6.10
2019-05-23T02:00:48.133Z,6.70
2019-05-23T02:01:48.116Z,5.50
2019-05-23T02:02:48.096Z,6.30
2019-05-23T02:04:40.621Z,6.40
2019-05-23T02:05:40.602Z,6.50
2019-05-23T02:06:40.587Z,6.60
2019-05-23T02:07:40.569Z,6.50
2019-05-23T02:08:40.558Z,9.20
2019-05-23T02:09:40.547Z,6.30
2019-05-23T02:11:33.070Z,6.70
2019-05-23T02:12:33.041Z,5.70
2019-05-23T02:13:33.024Z,6.30
2019-05-23T02:14:33.010Z,6.00
2019-05-23T02:15:32.993Z,6.40
2019-05-23T02:16:32.969Z,6.20
2019-05-23T02:17:32.960Z,5.90
2019-05-23T02:18:32.938Z,6.00
2019-05-23T02:19:32.921Z,6.90
2019-05-23T02:20:32.903Z,5.40
2019-05-23T02:21:32.881Z,5.70
2019-05-23T02:22:32.865Z,5.30
2019-05-23T02:23:32.848Z,5.40
2019-05-23T02:24:32.830Z,5.50
2019-05-23T02:25:32.816Z,5.50
2019-05-23T02:26:32.793Z,5.70
2019-05-23T02:27:32.787Z,5.30
2019-05-23T02:28:32.763Z,5.50
2019-05-23T02:29:32.969Z,5.30
2019-05-23T02:30:35.269Z,4.90
2019-05-23T02:31:32.704Z,5.50
2019-05-23T02:32:32.694Z,5.40
2019-05-23T02:33:32.672Z,5.90
2019-05-23T02:34:32.659Z,5.60
2019-05-23T02:35:32.635Z,5.30
2019-05-23T02:38:16.531Z,5.40
2019-05-23T02:39:15.862Z,5.80
2019-05-23T02:40:15.844Z,5.70
2019-05-23T02:41:15.830Z,5.30
2019-05-23T02:42:15.808Z,5.80
2019-05-23T02:43:15.792Z,6.10
2019-05-23T02:44:15.771Z,5.90
2019-05-23T02:45:15.762Z,5.70
2019-05-23T02:46:15.737Z,5.70
2019-05-23T02:47:15.722Z,5.70
2019-05-23T02:48:15.702Z,5.60
2019-05-23T02:49:15.687Z,5.60
2019-05-23T02:50:15.668Z,5.60
2019-05-23T02:51:15.650Z,5.70
2019-05-23T02:52:15.631Z,5.60
2019-05-23T02:53:15.621Z,5.20
2019-05-23T02:54:15.594Z,5.10
2019-05-23T02:55:15.581Z,5.10
2019-05-23T02:56:15.560Z,5.70
2019-05-23T02:57:15.542Z,5.30
2019-05-23T02:58:15.526Z,5.20
2019-05-23T02:59:15.519Z,5.30
2019-05-23T03:00:15.492Z,5.60
2019-05-23T03:01:15.482Z,5.40
2019-05-23T03:02:15.461Z,5.00
2019-05-23T03:03:15.437Z,5.00
2019-05-23T03:04:15.424Z,5.10
2019-05-23T03:05:15.411Z,4.50
2019-05-23T03:06:15.393Z,4.50
2019-05-23T03:07:15.366Z,4.70
2019-05-23T03:08:15.351Z,4.60
2019-05-23T03:09:15.329Z,4.90
2019-05-23T03:10:15.316Z,5.00
2019-05-23T03:11:15.296Z,5.30
2019-05-23T03:12:15.277Z,5.90
2019-05-23T03:13:15.261Z,4.80
2019-05-23T03:14:15.247Z,4.60
2019-05-23T03:15:15.219Z,4.40
2019-05-23T03:16:15.204Z,5.40
2019-05-23T03:17:15.186Z,5.40
2019-05-23T03:18:15.176Z,5.80
2019-05-23T03:19:15.151Z,4.60
2019-05-23T03:20:15.140Z,4.50
2019-05-23T03:21:15.119Z,4.40
2019-05-23T03:22:15.100Z,5.00
2019-05-23T03:23:15.083Z,6.00
2019-05-23T03:24:15.063Z,4.70
2019-05-23T03:25:15.047Z,4.70
2019-05-23T03:26:15.031Z,4.10
2019-05-23T03:27:15.014Z,4.70
2019-05-23T03:28:14.995Z,5.30
2019-05-23T03:29:14.974Z,4.70
2019-05-23T03:30:14.963Z,5.00
2019-05-23T03:31:28.881Z,4.70
2019-05-23T03:32:14.948Z,4.70
2019-05-23T03:33:15.056Z,4.90
2019-05-23T03:34:14.887Z,5.60
2019-05-23T03:35:14.872Z,4.50
2019-05-23T03:36:14.850Z,4.60
2019-05-23T03:37:14.833Z,5.00
2019-05-23T03:38:14.818Z,4.90
2019-05-23T03:39:14.796Z,4.90
2019-05-23T03:40:14.784Z,6.10
2019-05-23T03:41:14.779Z,5.70
2019-05-23T03:42:14.741Z,6.20
2019-05-23T03:43:14.724Z,5.80
2019-05-23T03:44:14.709Z,6.40
2019-05-23T03:45:14.711Z,6.90
2019-05-23T03:46:14.684Z,6.40
2019-05-23T03:47:14.672Z,6.40
2019-05-23T03:48:14.636Z,6.40
2019-05-23T03:49:15.025Z,6.60
2019-05-23T03:50:14.625Z,6.30
2019-05-23T03:51:14.603Z,7.60
2019-05-23T03:52:14.584Z,6.40
2019-05-23T03:53:14.871Z,5.90
2019-05-23T03:55:02.091Z,6.40
2019-05-23T03:56:02.470Z,6.30
2019-05-23T04:02:40.534Z,6.10
2019-05-23T04:03:40.789Z,6.20
2019-05-23T04:04:40.494Z,6.10
2019-05-23T04:05:40.481Z,5.80
2019-05-23T04:06:40.477Z,7.80
2019-05-23T04:07:40.443Z,6.40
2019-05-23T04:08:40.475Z,6.90
2019-05-23T04:09:40.407Z,6.20
2019-05-23T04:10:40.394Z,6.80
2019-05-23T04:11:40.369Z,7.00
2019-05-23T04:12:40.368Z,6.70
2019-05-23T04:13:40.353Z,7.00
2019-05-23T04:14:40.326Z,7.10
2019-05-23T04:15:40.310Z,6.90
2019-05-23T04:16:40.286Z,6.80
2019-05-23T04:17:40.265Z,6.90
2019-05-23T04:18:40.249Z,7.10
2019-05-23T04:19:40.231Z,6.70
2019-05-23T04:20:40.221Z,6.90
2019-05-23T04:21:40.202Z,6.80
2019-05-23T04:22:40.171Z,6.80
2019-05-23T04:23:40.184Z,7.40
2019-05-23T04:24:40.148Z,6.40
2019-05-23T04:25:40.120Z,7.30
2019-05-23T04:26:40.108Z,8.10
2019-05-23T04:27:40.091Z,7.20
2019-05-23T04:28:40.066Z,7.80
2019-05-23T04:29:40.052Z,7.40
2019-05-23T04:30:40.034Z,7.00
2019-05-23T04:31:40.020Z,7.30
2019-05-23T04:32:39.999Z,6.90
2019-05-23T04:33:39.981Z,7.30
2019-05-23T04:34:39.966Z,7.00
2019-05-23T04:35:40.018Z,7.10
2019-05-23T04:36:39.938Z,7.30
2019-05-23T04:37:39.913Z,7.30
2019-05-23T04:38:39.894Z,7.00
2019-05-23T04:39:39.880Z,6.80
2019-05-23T04:40:39.858Z,7.80
2019-05-23T04:41:39.843Z,6.60
2019-05-23T04:42:39.823Z,7.20
2019-05-23T04:43:39.807Z,7.10
2019-05-23T04:44:44.144Z,7.50
2019-05-23T04:45:39.940Z,7.30
2019-05-23T04:46:39.748Z,6.70
2019-05-23T04:47:39.734Z,7.30
2019-05-23T04:48:39.722Z,7.10
2019-05-23T04:49:39.700Z,7.00
2019-05-23T04:50:39.684Z,7.10
2019-05-23T04:51:39.659Z,7.00
2019-05-23T04:52:39.648Z,7.70
2019-05-23T04:53:39.631Z,7.50
2019-05-23T04:54:39.624Z,7.10
2019-05-23T04:55:39.595Z,7.10
2019-05-23T04:56:39.577Z,9.60
2019-05-23T04:57:39.561Z,7.00
2019-05-23T04:58:39.545Z,7.40
2019-05-23T04:59:39.528Z,7.10
2019-05-23T05:00:39.830Z,7.60
2019-05-23T05:06:49.275Z,6.80
2019-05-23T05:07:49.285Z,6.90
2019-05-23T05:08:49.233Z,7.90
2019-05-23T05:09:49.213Z,7.30
2019-05-23T05:10:49.193Z,7.40
2019-05-23T05:11:49.175Z,7.50
2019-05-23T05:12:49.163Z,7.40
2019-05-23T05:13:49.138Z,7.70
2019-05-23T05:14:49.178Z,7.80
2019-05-23T05:15:49.107Z,7.20
2019-05-23T05:16:49.089Z,6.90
2019-05-23T05:17:49.068Z,8.00
2019-05-23T05:18:49.049Z,7.60
2019-05-23T05:19:49.033Z,8.00
2019-05-23T05:20:49.022Z,7.70
2019-05-23T05:21:49.002Z,7.60
2019-05-23T05:22:48.977Z,7.50
2019-05-23T05:23:48.962Z,7.30
2019-05-23T05:24:48.965Z,7.50
2019-05-23T05:25:48.928Z,7.30
2019-05-23T05:26:48.915Z,7.40
2019-05-23T05:27:48.893Z,7.70
2019-05-23T05:28:48.876Z,7.80
2019-05-23T05:29:48.861Z,7.50
2019-05-23T05:30:48.837Z,8.40
2019-05-23T05:31:48.817Z,7.70
2019-05-23T05:32:48.803Z,7.90
2019-05-23T05:33:48.786Z,7.10
2019-05-23T05:34:48.765Z,7.30
2019-05-23T05:35:48.745Z,7.30
2019-05-23T05:36:48.730Z,7.40
2019-05-23T05:37:48.710Z,7.90
2019-05-23T05:38:48.695Z,7.80
2019-05-23T05:39:48.675Z,7.80
2019-05-23T05:40:48.652Z,7.80
2019-05-23T05:41:48.637Z,7.00
2019-05-23T05:42:48.619Z,7.90
2019-05-23T05:43:48.601Z,7.10
2019-05-23T05:44:48.584Z,7.90
2019-05-23T05:45:48.566Z,7.20
2019-05-23T05:46:48.547Z,7.40
2019-05-23T05:47:48.531Z,7.70
2019-05-23T05:48:48.516Z,7.50
2019-05-23T05:49:48.493Z,7.70
2019-05-23T05:50:48.478Z,7.00
2019-05-23T05:51:48.455Z,7.10
2019-05-23T05:52:48.447Z,7.50
2019-05-23T05:53:48.503Z,7.20
2019-05-23T05:54:48.405Z,7.30
2019-05-23T05:55:48.394Z,7.50
2019-05-23T05:56:48.369Z,6.80
2019-05-23T05:57:48.352Z,7.20
2019-05-23T05:58:48.338Z,7.20
2019-05-23T05:59:48.315Z,7.30
2019-05-23T06:00:48.312Z,7.20
2019-05-23T06:01:48.303Z,7.00
2019-05-23T06:03:03.392Z,6.90
2019-05-23T06:03:48.251Z,6.80
2019-05-23T06:04:48.227Z,6.90
2019-05-23T06:05:48.213Z,7.20
2019-05-23T06:06:50.222Z,6.40
2019-05-23T06:07:48.176Z,6.70
2019-05-23T06:08:48.155Z,6.80
2019-05-23T06:09:48.136Z,6.60
2019-05-23T06:10:48.120Z,6.90
2019-05-23T06:11:48.102Z,6.70
2019-05-23T06:12:48.083Z,6.30
2019-05-23T06:13:48.063Z,6.20
2019-05-23T06:14:48.054Z,6.60
2019-05-23T06:15:48.026Z,6.80
2019-05-23T06:16:48.009Z,6.70
2019-05-23T06:17:47.993Z,7.20
2019-05-23T06:18:47.974Z,6.70
2019-05-23T06:19:48.104Z,7.10
2019-05-23T06:20:47.941Z,6.60
2019-05-23T06:21:47.935Z,6.80
2019-05-23T06:22:47.903Z,6.30
2019-05-23T06:23:47.886Z,6.30
2019-05-23T06:26:10.469Z,6.50
2019-05-23T06:27:52.971Z,6.30
2019-05-23T06:28:52.950Z,6.50
2019-05-23T06:29:52.934Z,6.10
2019-05-23T06:30:52.923Z,6.50
2019-05-23T06:31:52.897Z,6.50
2019-05-23T06:32:52.880Z,5.90
2019-05-23T06:33:52.866Z,6.10
2019-05-23T06:34:52.844Z,5.90
2019-05-23T06:35:52.828Z,5.70
2019-05-23T06:36:52.820Z,5.90
2019-05-23T06:37:52.842Z,6.40
2019-05-23T06:38:52.778Z,5.60
2019-05-23T06:39:52.758Z,6.10
2019-05-23T06:40:52.744Z,5.60
2019-05-23T06:41:52.722Z,5.20
2019-05-23T06:45:28.504Z,4.90
2019-05-23T06:46:28.490Z,5.40
2019-05-23T06:47:28.520Z,5.20
2019-05-23T06:48:28.455Z,4.90
2019-05-23T06:49:28.438Z,5.20
2019-05-23T06:50:28.422Z,4.90
2019-05-23T06:51:28.403Z,5.30
2019-05-23T06:52:28.394Z,4.90
2019-05-23T06:53:28.370Z,5.20
2019-05-23T06:54:28.360Z,5.30
2019-05-23T06:55:28.339Z,5.20
2019-05-23T06:56:28.324Z,5.20
2019-05-23T06:57:28.313Z,5.40
2019-05-23T06:58:28.421Z,5.40
2019-05-23T06:59:28.265Z,5.80
2019-05-23T07:00:28.260Z,5.50
2019-05-23T07:01:28.238Z,5.50
2019-05-23T07:02:31.855Z,5.30
2019-05-23T07:03:41.731Z,5.10
2019-05-23T07:04:28.192Z,5.10
2019-05-23T07:05:28.166Z,5.30
2019-05-23T07:06:28.152Z,5.60
2019-05-23T07:07:28.141Z,4.80
2019-05-23T07:08:28.329Z,5.30
2019-05-23T07:09:28.102Z,5.40
2019-05-23T07:10:28.095Z,5.50
2019-05-23T07:11:28.066Z,5.30
2019-05-23T07:12:28.059Z,6.20
2019-05-23T07:13:28.033Z,5.90
2019-05-23T07:14:28.026Z,5.70
2019-05-23T07:15:28.016Z,6.00
2019-05-23T07:16:27.987Z,6.50
2019-05-23T07:17:27.970Z,6.30
2019-05-23T07:18:27.955Z,5.70
2019-05-23T07:19:27.944Z,5.60
2019-05-23T07:20:27.919Z,5.40
2019-05-23T07:21:27.979Z,6.00
2019-05-23T07:22:27.956Z,5.70
2019-05-23T07:23:27.878Z,5.10
2019-05-23T07:24:27.862Z,5.00
2019-05-23T07:25:27.845Z,4.90
2019-05-23T07:26:27.824Z,5.30
2019-05-23T07:27:27.816Z,5.20
2019-05-23T07:28:27.794Z,5.10
2019-05-23T07:29:27.780Z,5.30
2019-05-23T07:30:27.865Z,5.60
2019-05-23T07:31:27.746Z,5.30
2019-05-23T07:32:27.733Z,5.50
2019-05-23T07:33:27.719Z,6.00
2019-05-23T07:34:27.695Z,5.30
2019-05-23T07:35:27.690Z,5.40
2019-05-23T07:36:27.674Z,5.30
2019-05-23T07:37:27.663Z,5.40
2019-05-23T07:38:27.647Z,5.20
2019-05-23T07:39:27.623Z,5.20
2019-05-23T07:40:27.612Z,4.50
2019-05-23T07:41:27.591Z,5.30
2019-05-23T07:42:27.577Z,5.90
2019-05-23T07:43:27.565Z,5.50
2019-05-23T07:44:27.551Z,5.20
2019-05-23T07:45:27.538Z,5.20
2019-05-23T07:46:27.511Z,5.60
2019-05-23T07:47:27.516Z,5.30
2019-05-23T07:48:27.495Z,5.50
2019-05-23T07:49:27.482Z,5.10
2019-05-23T07:50:27.488Z,4.80
2019-05-23T07:51:29.748Z,4.90
2019-05-23T07:52:27.442Z,4.60
2019-05-23T07:53:27.450Z,4.30
2019-05-23T07:54:27.411Z,5.00
2019-05-23T07:55:27.399Z,5.10
2019-05-23T07:56:27.388Z,4.70
2019-05-23T07:57:27.371Z,4.90
2019-05-23T07:58:27.361Z,5.00
2019-05-23T07:59:27.348Z,5.00
2019-05-23T08:00:27.340Z,4.50
2019-05-23T08:01:27.327Z,4.90
2019-05-23T08:02:27.323Z,4.30
2019-05-23T08:03:27.308Z,4.70
2019-05-23T08:04:27.298Z,5.10
2019-05-23T08:05:27.294Z,4.70
2019-05-23T08:06:27.283Z,4.70
2019-05-23T08:07:27.281Z,4.60
2019-05-23T08:08:27.274Z,4.30
2019-05-23T08:09:27.260Z,4.90
2019-05-23T08:10:33.676Z,4.50
2019-05-23T08:11:27.331Z,4.60
2019-05-23T08:12:27.238Z,4.70
2019-05-23T08:13:27.230Z,4.90
2019-05-23T08:14:27.236Z,4.80
2019-05-23T08:15:27.230Z,5.00
2019-05-23T08:16:27.222Z,5.10
2019-05-23T08:17:27.233Z,5.10
2019-05-23T08:18:30.432Z,4.90
2019-05-23T08:19:27.202Z,5.10
2019-05-23T08:20:27.202Z,5.00
2019-05-23T08:21:27.193Z,5.00
2019-05-23T08:22:27.188Z,4.80
2019-05-23T08:23:27.182Z,4.70
2019-05-23T08:24:27.177Z,4.80
2019-05-23T08:25:27.179Z,4.80
2019-05-23T08:26:27.181Z,4.70
2019-05-23T08:27:27.174Z,5.10
2019-05-23T08:28:27.167Z,5.30
2019-05-23T08:29:27.166Z,5.20
2019-05-23T08:30:27.160Z,4.70
2019-05-23T08:31:27.158Z,5.40
2019-05-23T08:32:27.154Z,5.00
2019-05-23T08:33:27.150Z,5.20
2019-05-23T08:34:40.581Z,4.90
2019-05-23T08:35:27.369Z,4.90
2019-05-23T08:36:27.153Z,5.00
2019-05-23T08:37:27.144Z,5.00
2019-05-23T08:38:27.143Z,5.50
2019-05-23T08:39:27.140Z,5.10
2019-05-23T08:40:27.147Z,5.20
2019-05-23T08:41:27.136Z,5.40
2019-05-23T08:42:27.187Z,5.50
2019-05-23T08:43:27.134Z,5.60
2019-05-23T08:44:27.129Z,5.70
2019-05-23T08:45:27.130Z,5.30
2019-05-23T08:46:27.133Z,5.50
2019-05-23T08:47:27.137Z,4.90
2019-05-23T08:48:27.128Z,5.30
2019-05-23T08:49:27.127Z,4.80
2019-05-23T08:50:27.138Z,4.70
2019-05-23T08:51:27.127Z,4.90
2019-05-23T08:52:27.123Z,5.20
2019-05-23T08:53:27.122Z,5.20
2019-05-23T08:54:27.123Z,5.40
2019-05-23T08:55:27.168Z,4.80
2019-05-23T08:56:27.127Z,5.30
2019-05-23T08:57:27.160Z,5.00
2019-05-23T08:58:27.123Z,4.80
2019-05-23T08:59:27.126Z,5.00
2019-05-23T09:00:27.155Z,4.10
2019-05-23T09:01:27.122Z,4.40
2019-05-23T09:02:27.117Z,4.20
2019-05-23T09:03:27.125Z,4.60
2019-05-23T09:04:27.121Z,4.20
2019-05-23T09:05:27.321Z,4.00
2019-05-23T09:06:27.117Z,4.40
2019-05-23T09:07:27.122Z,4.00
2019-05-23T09:08:27.122Z,4.10
2019-05-23T09:09:29.918Z,4.20
2019-05-23T09:10:27.115Z,3.90
2019-05-23T09:11:27.119Z,4.00
2019-05-23T09:12:27.119Z,3.70
2019-05-23T09:13:27.122Z,3.90
2019-05-23T09:14:27.120Z,4.10
2019-05-23T09:15:27.122Z,4.00
2019-05-23T09:16:27.171Z,4.30
2019-05-23T09:17:27.123Z,4.40
2019-05-23T09:18:27.124Z,4.20
2019-05-23T09:19:27.123Z,5.20
2019-05-23T09:20:27.127Z,4.00
2019-05-23T09:21:27.127Z,3.80
2019-05-23T09:22:27.125Z,6.00
2019-05-23T09:23:27.203Z,4.40
2019-05-23T09:24:27.125Z,4.90
2019-05-23T09:25:27.130Z,4.10
2019-05-23T09:26:27.124Z,4.60
2019-05-23T09:27:27.132Z,4.20
2019-05-23T09:28:27.132Z,4.30
2019-05-23T09:29:27.127Z,4.20
2019-05-23T09:30:27.131Z,4.00
2019-05-23T09:31:27.130Z,4.30
2019-05-23T09:32:27.139Z,3.60
2019-05-23T09:33:27.135Z,4.20
2019-05-23T09:34:27.131Z,5.60
2019-05-23T09:35:27.141Z,5.30
2019-05-23T09:36:27.138Z,6.30
2019-05-23T09:37:27.137Z,4.50
2019-05-23T09:38:27.134Z,4.60
2019-05-23T09:39:27.134Z,4.20
2019-05-23T09:40:27.145Z,3.80
2019-05-23T09:41:27.142Z,3.70
2019-05-23T09:42:27.148Z,4.40
2019-05-23T09:43:27.143Z,3.80
2019-05-23T09:44:27.150Z,3.70
2019-05-23T09:45:27.143Z,3.60
2019-05-23T09:46:27.144Z,4.50
2019-05-23T09:47:27.148Z,3.70
2019-05-23T09:48:27.376Z,4.10
2019-05-23T09:49:27.152Z,4.60
2019-05-23T09:50:27.147Z,4.50
2019-05-23T09:51:27.152Z,4.80
2019-05-23T09:52:27.154Z,4.70
2019-05-23T09:53:27.153Z,4.40
2019-05-23T09:54:27.163Z,4.90
2019-05-23T09:55:27.158Z,4.70
2019-05-23T09:56:27.159Z,4.60
2019-05-23T09:57:27.162Z,4.40
2019-05-23T09:58:27.163Z,4.50
2019-05-23T09:59:27.188Z,4.30
2019-05-23T10:00:27.280Z,4.60
2019-05-23T10:01:27.178Z,4.50
2019-05-23T10:02:27.161Z,4.50
2019-05-23T10:03:27.164Z,3.90
2019-05-23T10:04:27.169Z,4.30
2019-05-23T10:05:42.093Z,4.30
2019-05-23T10:06:27.162Z,4.00
2019-05-23T10:07:27.175Z,3.70
2019-05-23T10:08:27.171Z,3.60
2019-05-23T10:09:27.176Z,4.00
2019-05-23T10:10:27.171Z,4.00
2019-05-23T10:11:27.171Z,3.90
2019-05-23T10:12:27.173Z,4.00
2019-05-23T10:13:38.315Z,3.90
2019-05-23T10:14:27.174Z,3.90
2019-05-23T10:15:27.175Z,4.10
2019-05-23T10:16:27.180Z,4.20
2019-05-23T10:17:27.199Z,3.90
2019-05-23T10:18:27.176Z,4.10
2019-05-23T10:19:27.178Z,3.90
2019-05-23T10:20:27.184Z,3.80
2019-05-23T10:21:27.178Z,4.00
2019-05-23T10:22:27.185Z,3.70
2019-05-23T10:23:27.183Z,3.80
2019-05-23T10:24:27.185Z,3.90
2019-05-23T10:25:27.182Z,3.40
2019-05-23T10:26:27.187Z,3.90
2019-05-23T10:27:27.197Z,3.80
2019-05-23T10:28:27.190Z,4.30
2019-05-23T10:29:27.195Z,3.90
2019-05-23T10:30:27.191Z,3.90
2019-05-23T10:31:27.197Z,4.10
2019-05-23T10:32:27.197Z,3.80
2019-05-23T10:33:27.199Z,4.80
2019-05-23T10:34:27.196Z,3.90
2019-05-23T10:35:27.198Z,4.10
2019-05-23T10:36:27.199Z,3.80
2019-05-23T10:37:27.202Z,3.90
2019-05-23T10:38:29.468Z,3.90
2019-05-23T10:39:27.204Z,3.90
2019-05-23T10:40:27.210Z,4.40
2019-05-23T10:41:27.208Z,4.70
2019-05-23T10:42:27.210Z,4.20
2019-05-23T10:43:27.212Z,4.40
2019-05-23T10:44:27.218Z,4.30
2019-05-23T10:45:27.212Z,4.00
2019-05-23T10:46:27.217Z,4.30
2019-05-23T10:47:27.219Z,4.40
2019-05-23T10:48:27.225Z,4.00
2019-05-23T10:49:27.221Z,4.30
2019-05-23T10:50:41.958Z,4.40
2019-05-23T10:51:27.227Z,4.70
2019-05-23T10:52:27.233Z,3.90
2019-05-23T10:53:27.231Z,4.10
2019-05-23T10:54:27.251Z,4.10
2019-05-23T10:55:27.252Z,4.30
2019-05-23T10:56:27.239Z,4.10
2019-05-23T10:57:27.249Z,4.00
2019-05-23T10:58:27.241Z,3.90
2019-05-23T10:59:27.570Z,4.20
2019-05-23T11:00:27.257Z,2.90
2019-05-23T11:01:27.253Z,3.10
2019-05-23T11:02:27.359Z,3.80
2019-05-23T11:03:27.260Z,3.10
2019-05-23T11:04:27.257Z,2.90
2019-05-23T11:05:27.257Z,2.80
2019-05-23T11:06:27.319Z,2.70
2019-05-23T11:07:27.266Z,2.80
2019-05-23T11:08:29.976Z,3.80
2019-05-23T11:09:37.172Z,4.10
2019-05-23T11:10:27.337Z,3.60
2019-05-23T11:11:27.322Z,3.90
2019-05-23T11:12:27.279Z,3.80
2019-05-23T11:13:27.288Z,3.90
2019-05-23T11:14:27.287Z,4.00
2019-05-23T11:15:27.290Z,4.20
2019-05-23T11:16:27.291Z,4.00
2019-05-23T11:17:27.295Z,3.80
2019-05-23T11:18:27.310Z,3.70
2019-05-23T11:19:27.306Z,3.60
2019-05-23T11:20:27.301Z,3.50
2019-05-23T11:21:27.311Z,3.60
2019-05-23T11:22:27.305Z,3.50
2019-05-23T11:23:27.310Z,3.40
2019-05-23T11:24:27.310Z,3.60
2019-05-23T11:25:27.314Z,3.50
2019-05-23T11:26:27.317Z,3.40
2019-05-23T11:27:27.317Z,3.40
2019-05-23T11:28:27.339Z,3.50
2019-05-23T11:29:27.695Z,3.60
2019-05-23T11:30:27.327Z,3.50
2019-05-23T11:31:27.333Z,3.70
2019-05-23T11:32:27.332Z,3.40
2019-05-23T11:33:27.331Z,3.20
2019-05-23T11:34:27.335Z,3.60
2019-05-23T11:35:27.340Z,3.70
2019-05-23T11:36:35.474Z,3.80
2019-05-23T11:37:27.344Z,3.80
2019-05-23T11:38:27.349Z,4.00
2019-05-23T11:39:27.356Z,3.60
2019-05-23T11:40:27.355Z,3.50
2019-05-23T11:41:27.354Z,4.00
2019-05-23T11:42:27.357Z,3.60
2019-05-23T11:43:27.359Z,15.80
2019-05-23T11:44:27.366Z,4.80
2019-05-23T11:45:27.366Z,7.20
2019-05-23T11:46:27.370Z,4.10
2019-05-23T11:47:30.695Z,3.50
2019-05-23T11:48:27.372Z,3.50
2019-05-23T11:49:27.373Z,3.70
2019-05-23T11:50:27.377Z,3.50
2019-05-23T11:51:27.674Z,3.50
2019-05-23T11:52:27.380Z,3.80
2019-05-23T11:53:27.383Z,4.00
2019-05-23T11:54:27.384Z,3.50
2019-05-23T11:55:27.403Z,3.30
2019-05-23T11:56:27.393Z,3.80
2019-05-23T11:57:27.408Z,3.80
2019-05-23T11:58:31.922Z,4.20
2019-05-23T11:59:27.404Z,3.50
2019-05-23T12:00:27.413Z,4.20
2019-05-23T12:01:27.404Z,3.70
2019-05-23T12:02:27.401Z,4.00
2019-05-23T12:03:27.433Z,3.50
2019-05-23T12:04:27.411Z,3.70
2019-05-23T12:05:27.416Z,3.30
2019-05-23T12:06:27.418Z,4.20
2019-05-23T12:07:27.457Z,4.00
2019-05-23T12:08:27.427Z,4.00
2019-05-23T12:09:27.412Z,3.60
2019-05-23T12:10:27.423Z,3.50
2019-05-23T12:11:27.418Z,3.80
2019-05-23T12:12:27.422Z,3.60
2019-05-23T12:13:27.426Z,3.20
2019-05-23T12:14:27.424Z,3.80
2019-05-23T12:15:27.430Z,3.90
2019-05-23T12:16:27.427Z,3.50
2019-05-23T12:17:27.439Z,3.80
2019-05-23T12:18:27.432Z,3.70
2019-05-23T12:19:27.793Z,3.30
2019-05-23T12:20:27.436Z,3.80
2019-05-23T12:21:27.446Z,3.50
2019-05-23T12:22:27.457Z,3.30
2019-05-23T12:23:27.443Z,3.70
2019-05-23T12:24:27.455Z,4.00
2019-05-23T12:25:27.445Z,3.80
2019-05-23T12:26:27.631Z,4.00
2019-05-23T12:27:27.450Z,4.10
2019-05-23T12:28:27.453Z,3.70
2019-05-23T12:29:27.447Z,3.80
2019-05-23T12:30:27.449Z,3.70
2019-05-23T12:31:27.459Z,3.90
2019-05-23T12:32:27.464Z,3.90
2019-05-23T12:33:27.461Z,3.60
2019-05-23T12:34:27.470Z,3.40
2019-05-23T12:35:27.461Z,3.20
2019-05-23T12:36:27.465Z,3.90
2019-05-23T12:37:27.479Z,3.60
2019-05-23T12:38:27.478Z,3.20
2019-05-23T12:39:27.510Z,3.60
2019-05-23T12:40:27.477Z,3.40
2019-05-23T12:41:27.487Z,3.70
2019-05-23T12:42:27.479Z,4.00
2019-05-23T12:43:27.480Z,3.90
2019-05-23T12:44:27.478Z,3.50
2019-05-23T12:45:27.480Z,3.60
2019-05-23T12:46:27.480Z,3.80
2019-05-23T12:47:27.483Z,3.70
2019-05-23T12:48:27.480Z,3.60
2019-05-23T12:49:27.503Z,3.80
2019-05-23T12:50:27.485Z,3.60
2019-05-23T12:51:27.484Z,4.00
2019-05-23T12:52:27.491Z,9.70
2019-05-23T12:53:27.490Z,3.90
2019-05-23T12:54:27.483Z,4.00
2019-05-23T12:55:27.485Z,6.00
2019-05-23T12:56:27.486Z,6.10
2019-05-23T12:57:27.486Z,4.70
2019-05-23T12:58:27.511Z,4.80
2019-05-23T12:59:27.493Z,3.40
2019-05-23T13:00:27.517Z,3.90
2019-05-23T13:01:27.495Z,3.60
2019-05-23T13:02:27.504Z,3.90
2019-05-23T13:03:27.512Z,4.00
2019-05-23T13:04:27.489Z,4.20
2019-05-23T13:05:27.501Z,4.00
2019-05-23T13:06:27.492Z,4.40
2019-05-23T13:07:36.450Z,3.70
2019-05-23T13:08:28.092Z,4.00
2019-05-23T13:09:27.618Z,4.30
2019-05-23T13:10:27.593Z,5.80
2019-05-23T13:11:35.743Z,4.20
2019-05-23T13:12:30.110Z,4.10
2019-05-23T13:13:27.484Z,4.40
2019-05-23T13:14:27.485Z,4.40
2019-05-23T13:15:27.484Z,3.90
2019-05-23T13:16:27.484Z,4.20
2019-05-23T13:17:27.488Z,4.20
2019-05-23T13:18:27.485Z,4.70
2019-05-23T13:19:27.481Z,4.70
2019-05-23T13:20:27.477Z,4.40
2019-05-23T13:21:27.476Z,4.80
2019-05-23T13:22:27.558Z,4.00
2019-05-23T13:23:27.479Z,3.90
2019-05-23T13:24:27.481Z,4.40
2019-05-23T13:25:27.478Z,4.60
2019-05-23T13:26:27.473Z,4.20
2019-05-23T13:27:27.462Z,4.40
2019-05-23T13:28:27.463Z,4.50
2019-05-23T13:29:27.461Z,4.40
2019-05-23T13:30:27.462Z,4.30
2019-05-23T13:31:27.460Z,4.10
2019-05-23T13:32:27.461Z,4.00
2019-05-23T13:33:27.459Z,4.20
2019-05-23T13:34:27.463Z,4.40
2019-05-23T13:35:27.448Z,4.10
2019-05-23T13:36:27.445Z,4.20
2019-05-23T13:37:27.444Z,4.10
2019-05-23T13:38:27.439Z,4.30
2019-05-23T13:39:27.437Z,3.80
2019-05-23T13:40:27.454Z,3.90
2019-05-23T13:41:27.442Z,3.70
2019-05-23T13:42:27.429Z,4.00
2019-05-23T13:43:27.428Z,3.70
2019-05-23T13:44:33.436Z,3.60
2019-05-23T13:45:27.423Z,3.40
2019-05-23T13:46:27.414Z,3.70
2019-05-23T13:47:27.411Z,3.00
2019-05-23T13:48:28.437Z,3.20
2019-05-23T13:49:27.404Z,3.20
2019-05-23T13:50:27.407Z,3.80